createdAt,value
2018-04-10T00:00:24.687Z,94858.55
2018-04-10T00:02:51.039Z,94856.41
2018-04-10T00:05:17.356Z,94856.98
2018-04-10T00:07:43.696Z,94849.14
2018-04-10T00:10:10.065Z,94846.24
2018-04-10T00:12:36.463Z,94849.52
2018-04-10T00:15:02.907Z,94848.58
2018-04-10T00:17:29.228Z,94848.56
2018-04-10T00:19:55.617Z,94854.13
2018-04-10T00:22:21.952Z,94848.56
2018-04-10T00:24:48.348Z,94849.50
2018-04-10T00:27:14.682Z,94844.67
2018-04-10T00:29:41.004Z,94847.28
2018-04-10T00:32:07.325Z,94846.76
2018-04-10T00:34:33.681Z,94840.69
2018-04-10T00:37:00.007Z,94834.55
2018-04-10T00:39:26.341Z,94834.77
2018-04-10T00:41:52.701Z,94826.55
2018-04-10T00:44:19.109Z,94833.48
2018-04-10T00:46:45.472Z,94830.17
2018-04-10T00:49:11.868Z,94836.24
2018-04-10T00:51:38.219Z,94831.84
2018-04-10T00:54:04.572Z,94824.02
2018-04-10T00:56:30.891Z,94832.74
2018-04-10T00:58:57.281Z,94832.28
2018-04-10T01:03:56.195Z,94831.05
2018-04-10T01:06:22.517Z,94844.22
2018-04-10T01:08:48.901Z,94842.27
2018-04-10T01:11:15.246Z,94841.87
2018-04-10T01:13:41.587Z,94842.85
2018-04-10T01:16:07.923Z,94841.28
2018-04-10T01:18:34.303Z,94835.97
2018-04-10T01:21:00.644Z,94831.56
2018-04-10T01:23:26.971Z,94835.66
2018-04-10T01:25:53.329Z,94826.84
2018-04-10T01:28:19.667Z,94824.97
2018-04-10T01:30:46.066Z,94820.92
2018-04-10T01:33:12.459Z,94809.84
2018-04-10T01:35:39.011Z,94802.34
2018-04-10T01:38:05.335Z,94814.20
2018-04-10T01:40:31.712Z,94814.73
2018-04-10T01:42:58.030Z,94811.42
2018-04-10T01:45:25.447Z,94811.01
2018-04-10T01:47:51.778Z,94809.07
2018-04-10T01:50:19.818Z,94805.00
2018-04-10T01:52:46.231Z,94809.36
2018-04-10T01:55:12.544Z,94816.43
2018-04-10T01:57:39.007Z,94810.00
2018-04-10T02:00:05.332Z,94806.33
2018-04-10T02:02:31.699Z,94797.50
2018-04-10T02:04:58.061Z,94794.10
2018-04-10T02:07:24.413Z,94792.17
2018-04-10T02:12:22.597Z,94799.08
2018-04-10T02:14:49.060Z,94802.63
2018-04-10T02:17:15.422Z,94805.92
2018-04-10T02:19:41.785Z,94809.72
2018-04-10T02:22:08.979Z,94802.75
2018-04-10T02:24:35.372Z,94816.84
2018-04-10T02:27:01.796Z,94815.91
2018-04-10T02:29:28.171Z,94810.71
2018-04-10T02:31:54.608Z,94815.91
2018-04-10T02:34:21.070Z,94815.36
2018-04-10T02:36:47.691Z,94818.48
2018-04-10T02:39:14.194Z,94820.05
2018-04-10T02:41:40.585Z,94825.24
2018-04-10T02:44:07.054Z,94822.33
2018-04-10T02:46:33.428Z,94809.94
2018-04-10T02:49:00.154Z,94812.64
2018-04-10T02:51:26.546Z,94803.87
2018-04-10T02:53:52.976Z,94812.20
2018-04-10T02:56:19.386Z,94820.85
2018-04-10T02:58:45.785Z,94810.89
2018-04-10T03:01:12.280Z,94812.52
2018-04-10T03:03:38.759Z,94808.59
2018-04-10T03:06:05.166Z,94811.64
2018-04-10T03:08:31.538Z,94810.56
2018-04-10T03:10:57.957Z,94807.59
2018-04-10T03:13:24.364Z,94807.85
2018-04-10T03:15:50.846Z,94816.05
2018-04-10T03:18:17.226Z,94815.34
2018-04-10T03:20:43.602Z,94813.70
2018-04-10T03:23:10.007Z,94820.02
2018-04-10T03:25:36.467Z,94818.55
2018-04-10T03:28:03.059Z,94814.94
2018-04-10T03:30:29.482Z,94814.00
2018-04-10T03:32:55.854Z,94820.88
2018-04-10T03:35:22.267Z,94822.11
2018-04-10T03:37:48.640Z,94824.11
2018-04-10T03:40:15.080Z,94826.11
2018-04-10T03:42:41.498Z,94828.42
2018-04-10T03:45:07.875Z,94823.64
2018-04-10T03:47:34.226Z,94830.01
2018-04-10T03:50:00.666Z,94833.65
2018-04-10T03:52:27.085Z,94832.28
2018-04-10T03:54:53.412Z,94832.36
2018-04-10T03:57:19.735Z,94827.45
2018-04-10T03:59:46.078Z,94837.40
2018-04-10T04:02:12.433Z,94840.12
2018-04-10T04:04:38.797Z,94834.25
2018-04-10T04:07:05.129Z,94841.67
2018-04-10T04:09:31.463Z,94837.42
2018-04-10T04:11:57.815Z,94844.47
2018-04-10T04:14:24.139Z,94829.20
2018-04-10T04:16:50.462Z,94831.02
2018-04-10T04:19:16.831Z,94847.04
2018-04-10T04:21:43.143Z,94845.93
2018-04-10T04:24:09.552Z,94844.70
2018-04-10T04:26:35.907Z,94840.76
2018-04-10T04:29:02.267Z,94825.66
2018-04-10T04:31:28.752Z,94852.66
2018-04-10T04:33:55.110Z,94850.75
2018-04-10T04:36:21.488Z,94851.84
2018-04-10T04:38:47.813Z,94849.41
2018-04-10T04:41:15.146Z,94848.49
2018-04-10T04:43:41.467Z,94846.69
2018-04-10T04:46:07.829Z,94844.72
2018-04-10T04:48:34.176Z,94843.64
2018-04-10T04:51:00.507Z,94839.09
2018-04-10T04:53:26.851Z,94850.08
2018-04-10T04:55:53.880Z,94845.29
2018-04-10T04:58:20.404Z,94844.82
2018-04-10T05:00:46.745Z,94858.92
2018-04-10T05:03:13.167Z,94844.03
2018-04-10T05:05:39.504Z,94851.55
2018-04-10T05:08:05.834Z,94864.77
2018-04-10T05:10:32.171Z,94864.66
2018-04-10T05:12:58.516Z,94870.84
2018-04-10T05:15:24.934Z,94868.68
2018-04-10T05:17:51.266Z,94870.02
2018-04-10T05:20:17.646Z,94868.84
2018-04-10T05:22:44.021Z,94871.22
2018-04-10T05:25:10.374Z,94871.27
2018-04-10T05:27:36.715Z,94866.56
2018-04-10T05:30:03.178Z,94868.75
2018-04-10T05:32:29.507Z,94863.63
2018-04-10T05:34:55.840Z,94871.41
2018-04-10T05:37:22.216Z,94857.70
2018-04-10T05:39:48.553Z,94877.66
2018-04-10T05:42:14.913Z,94861.23
2018-04-10T05:44:41.675Z,94854.44
2018-04-10T05:47:08.341Z,94853.50
2018-04-10T05:49:34.850Z,94847.98
2018-04-10T05:52:01.219Z,94860.10
2018-04-10T05:54:27.600Z,94848.50
2018-04-10T05:56:54.063Z,94866.09
2018-04-10T05:59:20.544Z,94865.14
2018-04-10T06:01:47.007Z,94870.84
2018-04-10T06:04:13.421Z,94866.00
2018-04-10T06:06:39.953Z,94866.44
2018-04-10T06:09:06.436Z,94856.42
2018-04-10T06:11:32.780Z,94859.86
2018-04-10T06:13:59.226Z,94873.91
2018-04-10T06:16:26.228Z,94873.71
2018-04-10T06:18:53.184Z,94869.51
2018-04-10T06:21:19.613Z,94869.93
2018-04-10T06:23:46.036Z,94866.52
2018-04-10T06:26:12.658Z,94872.61
2018-04-10T06:28:39.209Z,94852.94
2018-04-10T06:31:05.564Z,94863.08
2018-04-10T06:33:31.972Z,94852.19
2018-04-10T06:35:58.347Z,94859.19
2018-04-10T06:38:24.713Z,94857.27
2018-04-10T06:40:51.205Z,94860.95
2018-04-10T06:43:17.588Z,94851.43
2018-04-10T06:45:44.028Z,94848.44
2018-04-10T06:48:10.409Z,94856.98
2018-04-10T06:50:37.086Z,94834.67
2018-04-10T06:53:03.793Z,94830.05
2018-04-10T06:55:30.540Z,94836.70
2018-04-10T06:57:57.429Z,94826.36
2018-04-10T07:00:32.867Z,94827.14
2018-04-10T07:02:59.325Z,94829.86
2018-04-10T07:05:25.881Z,94820.06
2018-04-10T07:07:52.380Z,94819.06
2018-04-10T07:10:18.837Z,94821.00
2018-04-10T07:12:45.416Z,94825.06
2018-04-10T07:15:11.896Z,94821.66
2018-04-10T07:17:38.637Z,94824.80
2018-04-10T07:20:05.553Z,94815.06
2018-04-10T07:22:32.038Z,94823.08
2018-04-10T07:24:58.614Z,94814.78
2018-04-10T07:27:25.084Z,94807.91
2018-04-10T07:29:51.653Z,94816.25
2018-04-10T07:32:18.093Z,94817.41
2018-04-10T07:34:44.701Z,94822.45
2018-04-10T07:37:11.143Z,94818.75
2018-04-10T07:39:37.629Z,94818.09
2018-04-10T07:42:04.327Z,94808.19
2018-04-10T07:44:30.803Z,94808.14
2018-04-10T07:46:58.040Z,94809.52
2018-04-10T07:49:24.504Z,94812.17
2018-04-10T07:51:51.364Z,94816.27
2018-04-10T07:54:19.094Z,94811.06
2018-04-10T07:56:45.580Z,94812.53
2018-04-10T07:59:12.226Z,94793.80
2018-04-10T08:01:38.793Z,94794.41
2018-04-10T08:04:05.510Z,94799.24
2018-04-10T08:06:31.927Z,94803.53
2018-04-10T08:08:58.554Z,94806.31
2018-04-10T08:11:24.972Z,94794.55
2018-04-10T08:13:51.695Z,94791.09
2018-04-10T08:16:18.170Z,94787.14
2018-04-10T08:18:44.706Z,94789.51
2018-04-10T08:21:11.883Z,94790.55
2018-04-10T08:23:38.613Z,94787.41
2018-04-10T08:26:05.033Z,94790.99
2018-04-10T08:28:31.956Z,94783.92
2018-04-10T08:30:59.759Z,94789.84
2018-04-10T08:33:26.265Z,94780.14
2018-04-10T08:35:52.800Z,94770.93
2018-04-10T08:38:22.665Z,94778.20
2018-04-10T08:40:49.268Z,94771.09
2018-04-10T08:43:15.669Z,94762.81
2018-04-10T08:45:42.326Z,94752.61
2018-04-10T08:48:09.023Z,94757.22
2018-04-10T08:50:35.533Z,94760.62
2018-04-10T08:53:02.062Z,94763.13
2018-04-10T08:55:28.439Z,94760.49
2018-04-10T08:57:55.207Z,94744.98
2018-04-10T09:00:21.675Z,94749.25
2018-04-10T09:02:48.102Z,94751.99
2018-04-10T09:05:14.467Z,94743.48
2018-04-10T09:07:40.980Z,94746.14
2018-04-10T09:10:07.441Z,94741.04
2018-04-10T09:12:34.213Z,94732.61
2018-04-10T09:15:00.614Z,94749.94
2018-04-10T09:17:26.932Z,94747.02
2018-04-10T09:19:53.393Z,94752.34
2018-04-10T09:22:20.031Z,94742.34
2018-04-10T09:24:46.380Z,94734.27
2018-04-10T09:27:12.950Z,94719.69
2018-04-10T09:29:39.310Z,94730.58
2018-04-10T09:32:05.712Z,94730.86
2018-04-10T09:34:32.476Z,94719.35
2018-04-10T09:36:58.981Z,94734.03
2018-04-10T09:39:25.519Z,94725.36
2018-04-10T09:41:52.597Z,94719.41
2018-04-10T09:44:19.204Z,94720.31
2018-04-10T09:46:45.758Z,94731.52
2018-04-10T09:49:12.180Z,94718.35
2018-04-10T09:51:38.694Z,94722.08
2018-04-10T09:54:05.310Z,94708.80
2018-04-10T09:56:31.836Z,94701.97
2018-04-10T09:58:58.273Z,94706.87
2018-04-10T10:01:24.789Z,94711.66
2018-04-10T10:03:51.720Z,94706.36
2018-04-10T10:06:18.176Z,94700.12
2018-04-10T10:08:44.570Z,94684.16
2018-04-10T10:11:10.942Z,94696.53
2018-04-10T10:13:37.604Z,94691.76
2018-04-10T10:16:04.045Z,94687.63
2018-04-10T10:18:30.412Z,94683.72
2018-04-10T10:23:43.735Z,94686.33
2018-04-10T10:26:11.104Z,94662.46
2018-04-10T10:28:37.470Z,94669.40
2018-04-10T10:31:03.928Z,94664.47
2018-04-10T10:33:30.447Z,94650.69
2018-04-10T10:35:56.850Z,94648.78
2018-04-10T10:38:23.305Z,94640.44
2018-04-10T10:40:49.976Z,94646.88
2018-04-10T10:43:16.530Z,94637.92
2018-04-10T10:45:42.887Z,94625.20
2018-04-10T10:48:09.454Z,94635.87
2018-04-10T10:50:35.851Z,94639.95
2018-04-10T10:53:02.333Z,94645.03
2018-04-10T10:55:28.811Z,94648.69
2018-04-10T10:57:55.553Z,94632.53
2018-04-10T11:00:22.061Z,94635.85
2018-04-10T11:02:48.452Z,94651.14
2018-04-10T11:05:14.822Z,94647.59
2018-04-10T11:07:41.563Z,94644.34
2018-04-10T11:10:07.939Z,94644.90
2018-04-10T11:12:34.526Z,94648.51
2018-04-10T11:15:00.999Z,94634.63
2018-04-10T11:17:27.389Z,94623.81
2018-04-10T11:19:54.180Z,94637.88
2018-04-10T11:22:20.769Z,94632.02
2018-04-10T11:24:47.180Z,94627.80
2018-04-10T11:27:13.685Z,94621.24
2018-04-10T11:29:42.156Z,94612.38
2018-04-10T11:32:08.603Z,94622.03
2018-04-10T11:34:36.070Z,94618.34
2018-04-10T11:37:02.475Z,94612.86
2018-04-10T11:39:28.912Z,94593.61
2018-04-10T11:41:55.365Z,94590.08
2018-04-10T11:44:22.430Z,94580.56
2018-04-10T11:46:49.034Z,94591.80
2018-04-10T11:49:15.599Z,94589.69
2018-04-10T11:51:42.130Z,94584.97
2018-04-10T11:54:08.579Z,94572.99
2018-04-10T11:56:35.013Z,94577.47
2018-04-10T11:59:01.380Z,94563.16
2018-04-10T12:01:28.184Z,94557.76
2018-04-10T12:03:54.657Z,94544.63
2018-04-10T12:06:21.159Z,94541.05
2018-04-10T12:08:48.549Z,94548.80
2018-04-10T12:11:15.354Z,94537.06
2018-04-10T12:13:41.807Z,94532.36
2018-04-10T12:16:08.247Z,94532.08
2018-04-10T12:18:34.861Z,94533.06
2018-04-10T12:21:01.482Z,94516.57
2018-04-10T12:23:27.862Z,94509.80
2018-04-10T12:25:54.294Z,94499.17
2018-04-10T12:28:20.638Z,94486.97
2018-04-10T12:30:47.029Z,94502.66
2018-04-10T12:33:13.795Z,94504.39
2018-04-10T12:35:40.549Z,94506.77
2018-04-10T12:38:06.937Z,94480.85
2018-04-10T12:40:33.540Z,94482.83
2018-04-10T12:43:00.646Z,94480.39
2018-04-10T12:45:27.183Z,94489.56
2018-04-10T12:47:53.865Z,94482.54
2018-04-10T12:50:21.049Z,94492.91
2018-04-10T12:52:47.588Z,94474.81
2018-04-10T12:55:13.931Z,94474.85
2018-04-10T12:57:42.027Z,94468.75
2018-04-10T13:00:08.858Z,94477.61
2018-04-10T13:02:35.344Z,94490.84
2018-04-10T13:05:01.691Z,94488.61
2018-04-10T13:07:28.059Z,94482.02
2018-04-10T13:09:54.456Z,94473.27
2018-04-10T13:12:20.817Z,94481.55
2018-04-10T13:14:47.171Z,94484.84
2018-04-10T13:17:13.577Z,94476.97
2018-04-10T13:19:39.960Z,94485.08
2018-04-10T13:22:06.401Z,94480.67
2018-04-10T13:24:32.805Z,94464.92
2018-04-10T13:26:59.127Z,94491.13
2018-04-10T13:29:25.594Z,94478.61
2018-04-10T13:31:51.972Z,94473.80
2018-04-10T13:34:18.371Z,94466.00
2018-04-10T13:36:44.748Z,94469.80
2018-04-10T13:39:11.064Z,94471.38
2018-04-10T13:41:37.384Z,94476.39
2018-04-10T13:44:03.779Z,94464.95
2018-04-10T13:46:30.150Z,94477.92
2018-04-10T13:48:56.476Z,94477.58
2018-04-10T13:51:22.982Z,94478.38
2018-04-10T13:53:49.455Z,94468.98
2018-04-10T13:56:15.874Z,94469.51
2018-04-10T13:58:42.273Z,94463.34
2018-04-10T14:01:08.608Z,94464.34
2018-04-10T14:03:34.983Z,94463.45
2018-04-10T14:06:01.359Z,94464.45
2018-04-10T14:08:27.726Z,94460.30
2018-04-10T14:10:54.129Z,94473.41
2018-04-10T14:13:20.524Z,94466.30
2018-04-10T14:15:46.878Z,94458.30
2018-04-10T14:18:13.317Z,94445.20
2018-04-10T14:20:39.669Z,94454.36
2018-04-10T14:23:06.037Z,94459.64
2018-04-10T14:25:32.463Z,94455.72
2018-04-10T14:27:58.785Z,94452.54
2018-04-10T14:30:25.160Z,94448.30
2018-04-10T14:32:51.479Z,94447.01
2018-04-10T14:35:17.821Z,94456.42
2018-04-10T14:37:44.192Z,94451.41
2018-04-10T14:40:10.515Z,94453.72
2018-04-10T14:42:36.936Z,94455.88
2018-04-10T14:45:03.501Z,94454.83
2018-04-10T14:47:29.881Z,94454.59
2018-04-10T14:49:56.251Z,94453.72
2018-04-10T14:52:22.592Z,94451.70
2018-04-10T14:54:48.977Z,94451.38
2018-04-10T14:57:15.329Z,94450.42
2018-04-10T14:59:41.916Z,94449.96
2018-04-10T15:02:08.248Z,94458.38
2018-04-10T15:04:34.597Z,94442.20
2018-04-10T15:07:00.983Z,94444.55
2018-04-10T15:09:27.379Z,94444.48
2018-04-10T15:11:53.868Z,94422.53
2018-04-10T15:14:20.273Z,94435.80
2018-04-10T15:16:46.664Z,94440.95
2018-04-10T15:19:13.232Z,94434.38
2018-04-10T15:21:39.649Z,94432.34
2018-04-10T15:24:05.992Z,94428.47
2018-04-10T15:26:32.462Z,94429.39
2018-04-10T15:28:58.812Z,94432.22
2018-04-10T15:31:25.205Z,94426.11
2018-04-10T15:33:51.583Z,94434.39
2018-04-10T15:36:17.947Z,94427.22
2018-04-10T15:38:44.337Z,94435.52
2018-04-10T15:41:10.762Z,94432.39
2018-04-10T15:43:37.376Z,94437.74
2018-04-10T15:46:03.777Z,94432.52
2018-04-10T15:48:30.160Z,94428.28
2018-04-10T15:51:03.763Z,94430.74
2018-04-10T15:53:30.130Z,94440.73
2018-04-10T15:55:56.610Z,94430.05
2018-04-10T15:58:23.121Z,94433.81
2018-04-10T16:11:30.637Z,94416.66
2018-04-10T16:13:57.094Z,94420.53
2018-04-10T16:16:23.468Z,94424.09
2018-04-10T16:18:50.002Z,94413.72
2018-04-10T16:21:16.310Z,94418.81
2018-04-10T16:23:42.683Z,94429.20
2018-04-10T16:26:09.001Z,94422.16
2018-04-10T16:28:35.386Z,94425.28
2018-04-10T16:31:01.860Z,94430.88
2018-04-10T16:33:28.278Z,94443.42
2018-04-10T16:35:54.602Z,94449.00
2018-04-10T16:38:20.917Z,94444.87
2018-04-10T16:40:47.281Z,94445.50
2018-04-10T16:43:13.708Z,94461.41
2018-04-10T16:45:40.131Z,94456.80
2018-04-10T16:48:06.453Z,94462.76
2018-04-10T16:50:32.990Z,94468.90
2018-04-10T16:52:59.347Z,94464.80
2018-04-10T16:55:25.720Z,94468.52
2018-04-10T16:57:52.082Z,94460.87
2018-04-10T17:00:18.394Z,94464.20
2018-04-10T17:02:44.822Z,94458.38
2018-04-10T17:05:11.255Z,94466.72
2018-04-10T17:07:37.717Z,94465.28
2018-04-10T17:10:04.077Z,94471.29
2018-04-10T17:12:30.436Z,94471.04
2018-04-10T17:14:56.862Z,94472.77
2018-04-10T17:17:23.181Z,94472.98
2018-04-10T17:19:49.659Z,94468.35
2018-04-10T17:22:17.178Z,94454.41
2018-04-10T17:24:43.502Z,94463.12
2018-04-10T17:27:09.916Z,94466.71
2018-04-10T17:29:36.303Z,94467.91
2018-04-10T17:32:02.637Z,94468.31
2018-04-10T17:34:28.987Z,94477.05
2018-04-10T17:49:32.741Z,94500.89
2018-04-10T17:51:59.084Z,94498.03
2018-04-10T17:54:25.406Z,94496.89
2018-04-10T17:56:51.770Z,94509.02
2018-04-10T17:59:18.092Z,94513.73
2018-04-10T18:01:44.412Z,94516.70
2018-04-10T18:04:10.723Z,94528.34
2018-04-10T18:06:37.035Z,94529.22
2018-04-10T18:09:03.465Z,94536.27
2018-04-10T18:11:29.800Z,94541.44
2018-04-10T18:13:56.136Z,94539.25
2018-04-10T18:16:22.481Z,94539.94
2018-04-10T18:18:48.857Z,94542.48
2018-04-10T18:21:15.208Z,94542.66
2018-04-10T18:23:41.557Z,94546.60
2018-04-10T18:26:07.884Z,94554.48
2018-04-10T18:28:34.240Z,94549.79
2018-04-10T18:31:00.711Z,94549.45
2018-04-10T18:33:27.113Z,94536.34
2018-04-10T18:41:03.812Z,94541.11
2018-04-10T18:43:30.147Z,94531.77
2018-04-10T18:45:56.462Z,94527.75
2018-04-10T18:48:22.916Z,94530.39
2018-04-10T19:09:05.368Z,94571.48
2018-04-10T19:11:31.731Z,94564.89
2018-04-10T19:13:58.058Z,94568.03
2018-04-10T19:16:24.421Z,94574.28
2018-04-10T19:18:50.724Z,94571.55
2018-04-10T19:21:17.049Z,94571.29
2018-04-10T19:23:43.419Z,94561.92
2018-04-10T19:28:41.243Z,94579.97
2018-04-10T19:31:07.563Z,94582.08
2018-04-10T19:33:33.879Z,94579.58
2018-04-10T19:36:00.279Z,94588.72
2018-04-10T19:38:26.642Z,94589.20
2018-04-10T19:40:53.003Z,94589.34
2018-04-10T19:43:19.445Z,94588.98
2018-04-10T19:45:45.787Z,94583.45
2018-04-10T19:48:12.116Z,94588.13
2018-04-10T19:50:38.452Z,94586.36
2018-04-10T19:53:04.836Z,94586.17
2018-04-10T19:55:31.241Z,94589.75
2018-04-10T19:57:57.583Z,94580.73
2018-04-10T20:00:23.904Z,94573.20
2018-04-10T20:02:50.218Z,94586.92
2018-04-10T20:07:48.111Z,94598.72
2018-04-10T20:10:14.487Z,94608.70
2018-04-10T20:12:40.894Z,94614.36
2018-04-10T20:15:07.237Z,94607.97
2018-04-10T20:17:33.580Z,94616.59
2018-04-10T20:20:07.805Z,94610.20
2018-04-10T20:22:34.172Z,94607.75
2018-04-10T20:25:00.543Z,94602.66
2018-04-10T20:27:26.871Z,94596.63
2018-04-10T20:29:53.223Z,94613.39
2018-04-10T20:32:19.593Z,94616.39
2018-04-10T20:47:23.402Z,94593.50
2018-04-10T20:49:49.708Z,94605.47
2018-04-10T20:52:16.029Z,94610.67
2018-04-10T20:54:42.352Z,94612.92
2018-04-10T20:57:08.715Z,94609.46
2018-04-10T20:59:35.037Z,94610.20
2018-04-10T21:07:04.367Z,94593.16
2018-04-10T21:09:30.699Z,94582.84
2018-04-10T21:11:57.021Z,94577.06
2018-04-10T21:27:00.827Z,94567.02
2018-04-10T21:29:27.227Z,94568.02
2018-04-10T21:31:53.609Z,94567.23
2018-04-10T21:34:19.980Z,94570.81
2018-04-10T21:36:46.327Z,94577.61
2018-04-10T21:39:20.428Z,94572.10
2018-04-10T21:46:49.730Z,94594.80
2018-04-10T22:07:31.964Z,94600.52
2018-04-10T22:09:58.309Z,94604.50
2018-04-10T22:12:24.622Z,94604.83
2018-04-10T22:14:51.027Z,94607.34
2018-04-10T22:17:17.421Z,94606.47
2018-04-10T22:27:25.142Z,94594.99
2018-04-10T22:48:07.404Z,94568.92
2018-04-10T22:50:33.729Z,94563.19
2018-04-10T22:53:00.075Z,94578.07
2018-04-10T22:55:26.439Z,94579.00
2018-04-10T22:57:52.827Z,94559.27
2018-04-10T23:00:26.713Z,94559.08
2018-04-10T23:02:53.051Z,94564.89
2018-04-10T23:05:19.367Z,94581.17
2018-04-10T23:07:45.727Z,94566.37
2018-04-10T23:10:12.096Z,94560.29
2018-04-10T23:12:38.459Z,94563.75
2018-04-10T23:15:04.891Z,94559.65
2018-04-10T23:17:31.307Z,94562.98
2018-04-10T23:19:57.637Z,94561.90
2018-04-10T23:22:23.984Z,94566.36
2018-04-10T23:24:50.309Z,94569.43
2018-04-10T23:27:16.640Z,94568.14
2018-04-10T23:29:43.003Z,94566.80
2018-04-10T23:32:09.345Z,94571.05
2018-04-10T23:34:35.696Z,94563.49
2018-04-10T23:37:02.052Z,94563.31
2018-04-10T23:39:28.372Z,94566.98
2018-04-10T23:41:54.705Z,94557.31
2018-04-10T23:44:21.048Z,94563.31
2018-04-10T23:46:47.401Z,94557.02
2018-04-10T23:49:13.737Z,94555.76
2018-04-10T23:51:40.064Z,94554.13
2018-04-10T23:54:06.425Z,94554.53
2018-04-10T23:56:32.827Z,94555.64
2018-04-10T23:58:59.190Z,94551.63
